Time,TemperatureF,DewpointF,PressureIn,WindDirection,WindDirectionDegrees,WindSpeedMPH,WindSpeedGustMPH,Humidity,HourlyPrecipIn,Conditions,Clouds,dailyrainin,SolarRadiationWatts/m^2,SoftwareType,DateUTC
2013-04-15 00:00:00,38.0,31.0,-100.00,East,90,12.0,-999.0,76,-99.99,,,-99.99,0.000000,,2013-04-15 05:00:00,
2013-04-15 00:43:00,38.0,31.0,-100.00,East,90,12.0,-999.0,76,-99.99,,,-99.99,0.000000,,2013-04-15 05:43:00,
2013-04-15 00:53:00,38.0,31.0,-100.00,East,90,12.0,-999.0,76,-99.99,,,-99.99,0.000000,,2013-04-15 05:53:00,
2013-04-15 01:00:00,37.0,32.0,-100.00,ESE,112,12.0,-999.0,80,-99.99,,,-99.99,0.000000,,2013-04-15 06:00:00,
2013-04-15 01:43:00,37.0,32.0,-100.00,ESE,112,12.0,-999.0,80,-99.99,,,-99.99,0.000000,,2013-04-15 06:43:00,
2013-04-15 01:52:00,37.0,32.0,-100.00,ESE,112,12.0,-999.0,80,-99.99,,,-99.99,0.000000,,2013-04-15 06:52:00,
2013-04-15 02:00:00,37.0,33.0,-100.00,East,90,11.0,-999.0,83,-99.99,,,-99.99,0.000000,,2013-04-15 07:00:00,
2013-04-15 02:43:00,37.0,33.0,-100.00,East,90,11.0,-999.0,83,-99.99,,,-99.99,0.000000,,2013-04-15 07:43:00,
2013-04-15 02:54:00,37.0,33.0,-100.00,East,90,11.0,-999.0,83,-99.99,,,-99.99,0.000000,,2013-04-15 07:54:00,
2013-04-15 03:00:00,38.0,34.0,-100.00,ESE,112,9.0,-999.0,85,-99.99,,,-99.99,0.000000,,2013-04-15 08:00:00,
2013-04-15 03:43:00,38.0,34.0,-100.00,ESE,112,9.0,-999.0,85,-99.99,,,-99.99,0.000000,,2013-04-15 08:43:00,
2013-04-15 03:52:00,38.0,34.0,-100.00,ESE,112,9.0,-999.0,85,-99.99,,,-99.99,0.000000,,2013-04-15 08:52:00,
2013-04-15 04:00:00,41.0,37.0,-100.00,SSE,157,10.0,-999.0,84,0.09,,,-99.99,0.000000,,2013-04-15 09:00:00,
2013-04-15 04:43:00,41.0,37.0,-100.00,SSE,157,10.0,-999.0,84,0.09,,,-99.99,0.000000,,2013-04-15 09:43:00,
2013-04-15 04:53:00,41.0,37.0,-100.00,SSE,157,10.0,-999.0,84,0.09,,,-99.99,0.000000,,2013-04-15 09:53:00,
2013-04-15 05:00:00,41.0,39.0,-100.00,South,180,9.0,-999.0,92,0.06,,,-99.99,0.000000,,2013-04-15 10:00:00,
2013-04-15 05:42:00,41.0,39.0,-100.00,South,180,9.0,-999.0,92,0.06,,,-99.99,0.000000,,2013-04-15 10:42:00,
2013-04-15 05:53:00,41.0,39.0,-100.00,South,180,9.0,-999.0,92,0.06,,,-99.99,0.000000,,2013-04-15 10:53:00,
2013-04-15 06:00:00,41.0,39.0,-100.00,South,180,12.0,-999.0,93,-99.99,,,-99.99,0.000000,,2013-04-15 11:00:00,
2013-04-15 06:43:00,41.0,39.0,-100.00,South,180,12.0,-999.0,93,-99.99,,,-99.99,0.000000,,2013-04-15 11:43:00,
2013-04-15 06:54:00,41.0,39.0,-100.00,South,180,12.0,-999.0,93,-99.99,,,-99.99,0.000000,,2013-04-15 11:54:00,
2013-04-15 07:00:00,41.0,40.0,-100.00,SW,225,10.0,-999.0,95,-99.99,,,-99.99,6.960000,,2013-04-15 12:00:00,
2013-04-15 07:43:00,41.0,40.0,-100.00,SW,225,10.0,-999.0,95,-99.99,,,-99.99,6.960000,,2013-04-15 12:43:00,
2013-04-15 07:53:00,41.0,40.0,-100.00,SW,225,10.0,-999.0,95,-99.99,,,-99.99,6.960000,,2013-04-15 12:53:00,
2013-04-15 08:00:00,43.0,42.0,-100.00,WSW,247,11.0,-999.0,95,-99.99,,,-99.99,73.080002,,2013-04-15 13:00:00,
2013-04-15 08:43:00,43.0,42.0,-100.00,WSW,247,11.0,-999.0,95,-99.99,,,-99.99,73.080002,,2013-04-15 13:43:00,
2013-04-15 08:54:00,43.0,42.0,-100.00,WSW,247,11.0,-999.0,95,-99.99,,,-99.99,73.080002,,2013-04-15 13:54:00,
2013-04-15 09:00:00,41.0,39.0,-100.00,WSW,247,9.0,-999.0,94,-99.99,,,-99.99,193.720001,,2013-04-15 14:00:00,
2013-04-15 09:44:00,41.0,39.0,-100.00,WSW,247,9.0,-999.0,94,-99.99,,,-99.99,193.720001,,2013-04-15 14:44:00,
2013-04-15 09:55:00,41.0,39.0,-100.00,WSW,247,9.0,-999.0,94,-99.99,,,-99.99,193.720001,,2013-04-15 14:55:00,
2013-04-15 10:00:00,41.0,39.0,-100.00,WSW,247,5.0,-999.0,90,-99.99,,,-99.99,474.440002,,2013-04-15 15:00:00,
2013-04-15 10:45:00,41.0,39.0,-100.00,WSW,247,5.0,-999.0,90,-99.99,,,-99.99,474.440002,,2013-04-15 15:45:00,
2013-04-15 10:55:00,41.0,39.0,-100.00,WSW,247,5.0,-999.0,90,-99.99,,,-99.99,474.440002,,2013-04-15 15:55:00,
2013-04-15 11:00:00,49.0,39.0,-100.00,South,180,5.0,-999.0,69,-99.99,,,-99.99,712.239990,,2013-04-15 16:00:00,
2013-04-15 11:44:00,49.0,39.0,-100.00,South,180,5.0,-999.0,69,-99.99,,,-99.99,712.239990,,2013-04-15 16:44:00,
2013-04-15 11:54:00,49.0,39.0,-100.00,South,180,5.0,-999.0,69,-99.99,,,-99.99,712.239990,,2013-04-15 16:54:00,
2013-04-15 12:00:00,52.0,41.0,-100.00,SSE,157,6.0,-999.0,67,-99.99,,,-99.99,816.640015,,2013-04-15 17:00:00,
2013-04-15 12:43:00,52.0,41.0,-100.00,SSE,157,6.0,-999.0,67,-99.99,,,-99.99,816.640015,,2013-04-15 17:43:00,
2013-04-15 12:53:00,52.0,41.0,-100.00,SSE,157,6.0,-999.0,67,-99.99,,,-99.99,816.640015,,2013-04-15 17:53:00,
2013-04-15 13:00:00,54.0,41.0,-100.00,South,180,8.0,-999.0,63,-99.99,,,-99.99,787.640015,,2013-04-15 18:00:00,
2013-04-15 13:42:00,54.0,41.0,-100.00,South,180,8.0,-999.0,63,-99.99,,,-99.99,787.640015,,2013-04-15 18:42:00,
2013-04-15 13:52:00,54.0,41.0,-100.00,South,180,8.0,-999.0,63,-99.99,,,-99.99,787.640015,,2013-04-15 18:52:00,
2013-04-15 14:00:00,53.0,44.0,-100.00,South,180,10.0,-999.0,72,-99.99,,,-99.99,740.080017,,2013-04-15 19:00:00,
2013-04-15 14:59:00,53.0,44.0,-100.00,South,180,10.0,-999.0,72,-99.99,,,-99.99,740.080017,,2013-04-15 19:59:00,
2013-04-15 15:00:00,49.0,44.0,-100.00,South,180,9.0,-999.0,81,-99.99,,,-99.99,377.000000,,2013-04-15 20:00:00,
2013-04-15 15:42:00,49.0,44.0,-100.00,South,180,9.0,-999.0,81,-99.99,,,-99.99,377.000000,,2013-04-15 20:42:00,
2013-04-15 15:52:00,49.0,44.0,-100.00,South,180,9.0,-999.0,81,-99.99,,,-99.99,377.000000,,2013-04-15 20:52:00,
2013-04-15 16:00:00,49.0,42.0,-100.00,South,180,4.0,-999.0,77,-99.99,,,-99.99,236.639999,,2013-04-15 21:00:00,
2013-04-15 16:43:00,49.0,42.0,-100.00,South,180,4.0,-999.0,77,-99.99,,,-99.99,236.639999,,2013-04-15 21:43:00,
2013-04-15 16:53:00,49.0,42.0,-100.00,South,180,4.0,-999.0,77,-99.99,,,-99.99,236.639999,,2013-04-15 21:53:00,
2013-04-15 17:00:00,52.0,40.0,-100.00,SSW,202,9.0,-999.0,62,-99.99,,,-99.99,291.160004,,2013-04-15 22:00:00,
2013-04-15 17:42:00,52.0,40.0,-100.00,SSW,202,9.0,-999.0,62,-99.99,,,-99.99,291.160004,,2013-04-15 22:42:00,
2013-04-15 17:52:00,52.0,40.0,-100.00,SSW,202,9.0,-999.0,62,-99.99,,,-99.99,291.160004,,2013-04-15 22:52:00,
2013-04-15 18:00:00,52.0,33.0,-100.00,WSW,247,14.0,-999.0,49,-99.99,,,-99.99,200.679993,,2013-04-15 23:00:00,
2013-04-15 18:42:00,52.0,33.0,-100.00,WSW,247,14.0,-999.0,49,-99.99,,,-99.99,200.679993,,2013-04-15 23:42:00,
2013-04-15 18:52:00,52.0,33.0,-100.00,WSW,247,14.0,-999.0,49,-99.99,,,-99.99,200.679993,,2013-04-15 23:52:00,
2013-04-15 20:00:00,45.0,29.0,-100.00,West,270,7.0,-999.0,53,-99.99,,,-99.99,12.760000,,2013-04-16 01:00:00,
2013-04-15 20:42:00,45.0,29.0,-100.00,West,270,7.0,-999.0,53,-99.99,,,-99.99,12.760000,,2013-04-16 01:42:00,
2013-04-15 20:52:00,45.0,29.0,-100.00,West,270,7.0,-999.0,53,-99.99,,,-99.99,12.760000,,2013-04-16 01:52:00,
2013-04-15 21:00:00,41.0,29.0,-100.00,WNW,292,10.0,-999.0,62,-99.99,,,-99.99,0.000000,,2013-04-16 02:00:00,
2013-04-15 21:42:00,41.0,29.0,-100.00,WNW,292,10.0,-999.0,62,-99.99,,,-99.99,0.000000,,2013-04-16 02:42:00,
2013-04-15 21:52:00,41.0,29.0,-100.00,WNW,292,10.0,-999.0,62,-99.99,,,-99.99,0.000000,,2013-04-16 02:52:00,
2013-04-15 22:00:00,39.0,28.0,-100.00,WNW,292,8.0,-999.0,62,-99.99,,,-99.99,0.000000,,2013-04-16 03:00:00,
2013-04-15 22:43:00,39.0,28.0,-100.00,WNW,292,8.0,-999.0,62,-99.99,,,-99.99,0.000000,,2013-04-16 03:43:00,
2013-04-15 22:53:00,39.0,28.0,-100.00,WNW,292,8.0,-999.0,62,-99.99,,,-99.99,0.000000,,2013-04-16 03:53:00,
2013-04-15 23:00:00,38.0,27.0,-100.00,West,270,6.0,-999.0,64,-99.99,,,-99.99,0.000000,,2013-04-16 04:00:00,
2013-04-15 23:42:00,38.0,27.0,-100.00,West,270,6.0,-999.0,64,-99.99,,,-99.99,0.000000,,2013-04-16 04:42:00,
2013-04-15 23:53:00,38.0,27.0,-100.00,West,270,6.0,-999.0,64,-99.99,,,-99.99,0.000000,,2013-04-16 04:53:00,